Time;durP1;ratioP1;P1;durP2;ratioP2;P2;SDS_P1;SDS_P2;PMS_P1;PMS_P2;Temp;Humidity;BMP_temperature;BMP_pressure;BME280_temperature;BME280_humidity;BME280_pressure;Samples;Min_cycle;Max_cycle;Signal;HPM_P1;HPM_P2
2022/11/29 00:02:21;;;;;;;26.50;24.23;;;;;;;3.97;100.00;101468.94;5135323;28;20557;-84
2022/11/29 00:04:51;;;;;;;26.10;23.67;;;;;;;3.89;100.00;101454.91;5133989;29;20437;-83
2022/11/29 00:07:21;;;;;;;82.72;27.48;;;;;;;3.77;100.00;101451.94;5134959;28;20033;-81
2022/11/29 00:09:52;;;;;;;25.25;23.05;;;;;;;3.30;100.00;101384.09;5134829;28;20371;-82
2022/11/29 00:12:22;;;;;;;24.35;22.38;;;;;;;3.80;100.00;101467.56;5134683;29;20085;-83
2022/11/29 00:14:52;;;;;;;24.40;22.65;;;;;;;3.41;100.00;101403.25;5134378;28;20031;-81
2022/11/29 00:17:23;;;;;;;29.35;20.65;;;;;;;3.64;100.00;101443.88;5133064;28;20027;-83
2022/11/29 00:19:53;;;;;;;21.83;19.50;;;;;;;3.79;100.00;101468.59;5134848;29;20126;-83
2022/11/29 00:22:24;;;;;;;35.00;22.58;;;;;;;3.78;100.00;101482.97;5134310;28;20070;-83
2022/11/29 00:24:54;;;;;;;25.05;21.98;;;;;;;3.41;100.00;101405.94;5133567;29;20027;-83
2022/11/29 00:27:24;;;;;;;33.95;27.08;;;;;;;3.67;100.00;101460.31;5133601;28;20035;-81
2022/11/29 00:29:55;;;;;;;27.02;24.33;;;;;;;3.67;100.00;101465.66;5133253;29;20054;-81
2022/11/29 00:32:25;;;;;;;41.88;27.42;;;;;;;3.69;100.00;101452.13;5134687;29;20027;-82
2022/11/29 00:34:56;;;;;;;30.88;26.83;;;;;;;3.71;100.00;101468.78;5136284;28;20038;-83
2022/11/29 00:37:26;;;;;;;36.60;27.00;;;;;;;3.55;100.00;101440.50;5137605;28;20023;-83
2022/11/29 00:39:57;;;;;;;23.45;21.85;;;;;;;3.64;100.00;101454.53;5138660;29;20031;-82
2022/11/29 00:42:27;;;;;;;28.55;25.65;;;;;;;3.65;100.00;101462.38;5137333;29;20059;-82
2022/11/29 00:47:30;;;;;;;26.27;23.60;;;;;;;3.97;100.00;101484.97;5186078;28;20050;-68
2022/11/29 00:50:00;;;;;;;42.15;28.05;;;;;;;4.07;100.00;101480.06;5186429;28;20540;-68
2022/11/29 00:52:31;;;;;;;31.42;28.42;;;;;;;4.15;100.00;101488.94;5150067;28;20026;-67
2022/11/29 00:55:01;;;;;;;28.70;25.92;;;;;;;4.20;100.00;101486.50;5149979;28;20029;-67
2022/11/29 00:57:32;;;;;;;29.80;26.88;;;;;;;4.14;100.00;101487.28;5149972;28;20092;-67
2022/11/29 01:00:03;;;;;;;31.13;28.23;;;;;;;4.06;100.00;101486.44;5149541;28;20130;-68
2022/11/29 01:02:34;;;;;;;26.80;24.35;;;;;;;4.05;100.00;101494.63;5149675;28;20502;-66
2022/11/29 01:05:04;;;;;;;30.90;27.83;;;;;;;4.05;100.00;101487.44;5167129;28;20022;-66
2022/11/29 01:07:35;;;;;;;28.98;25.65;;;;;;;4.14;100.00;101489.97;5167863;28;20022;-70
2022/11/29 01:10:06;;;;;;;33.40;25.20;;;;;;;4.20;100.00;101489.19;5150641;28;20057;-67
2022/11/29 01:12:38;;;;;;;44.28;26.58;;;;;;;4.18;100.00;101499.25;5150269;28;20027;-67
2022/11/29 01:15:09;;;;;;;26.05;23.88;;;;;;;4.14;100.00;101504.16;5150258;28;20124;-68
2022/11/29 01:17:39;;;;;;;50.33;29.80;;;;;;;4.12;100.00;101495.50;5149831;28;20498;-66
2022/11/29 01:20:11;;;;;;;31.10;27.48;;;;;;;4.11;100.00;101501.03;5149287;28;20104;-66
2022/11/29 01:22:42;;;;;;;40.67;27.00;;;;;;;4.09;100.00;101503.91;5149614;28;20188;-66
2022/11/29 01:25:13;;;;;;;57.03;27.70;;;;;;;4.11;100.00;101506.38;5149584;28;20165;-66
2022/11/29 01:27:44;;;;;;;93.25;32.95;;;;;;;4.09;100.00;101509.25;5149585;28;20049;-65
2022/11/29 01:30:14;;;;;;;36.30;25.17;;;;;;;4.08;100.00;101510.28;5166618;28;20023;-66
2022/11/29 01:32:45;;;;;;;39.38;26.70;;;;;;;4.08;100.00;101516.44;5149535;28;20037;-65
2022/11/29 01:35:15;;;;;;;27.13;25.17;;;;;;;4.08;100.00;101524.47;5150116;28;20019;-68
2022/11/29 01:37:46;;;;;;;50.15;29.55;;;;;;;4.05;100.00;101518.69;5167047;28;20030;-66
2022/11/29 01:40:17;;;;;;;24.40;22.48;;;;;;;4.05;100.00;101522.19;5148986;28;20403;-68
2022/11/29 01:42:47;;;;;;;47.13;26.90;;;;;;;4.06;100.00;101528.34;5149125;28;20029;-68
2022/11/29 01:45:25;;;;;;;29.38;26.65;;;;;;;4.04;100.00;101525.09;5148497;28;20034;-66
2022/11/29 01:47:56;;;;;;;28.80;25.88;;;;;;;4.03;100.00;101539.47;5166505;28;20041;-67
2022/11/29 01:50:27;;;;;;;28.27;25.88;;;;;;;4.05;100.00;101542.75;5148299;28;20037;-69
2022/11/29 01:52:58;;;;;;;39.08;25.13;;;;;;;4.07;100.00;101541.53;5148634;28;20026;-67
2022/11/29 01:55:29;;;;;;;53.65;27.88;;;;;;;4.11;100.00;101541.13;5148805;28;20030;-67
2022/11/29 01:57:59;;;;;;;35.55;26.70;;;;;;;3.98;100.00;101517.84;5148658;28;20037;-69
2022/11/29 02:00:31;;;;;;;45.47;26.02;;;;;;;4.13;100.00;101545.28;5148109;28;20033;-67
2022/11/29 02:03:11;;;;;;;26.42;24.20;;;;;;;4.11;100.00;101558.00;5148541;28;20482;-66
2022/11/29 02:05:48;;;;;;;24.45;22.05;;;;;;;4.13;100.00;101555.97;5148568;28;20092;-69
2022/11/29 02:08:23;;;;;;;36.58;25.75;;;;;;;4.12;100.00;101553.47;5148605;28;20030;-67
2022/11/29 02:11:14;;;;;;;50.40;26.38;;;;;;;4.17;100.00;101556.41;5148053;28;20030;-70
2022/11/29 02:14:08;;;;;;;30.90;27.67;;;;;;;4.14;100.00;101556.78;5148504;28;20027;-67
2022/11/29 02:17:07;;;;;;;45.78;26.08;;;;;;;4.10;100.00;101558.19;5165886;28;20026;-67
2022/11/29 02:20:09;;;;;;;25.58;23.20;;;;;;;4.02;100.00;101560.03;5148022;28;20121;-66
2022/11/29 02:23:10;;;;;;;28.60;25.58;;;;;;;3.98;100.00;101553.41;5148152;28;20049;-68
2022/11/29 02:25:58;;;;;;;24.27;22.45;;;;;;;3.93;100.00;101558.50;5148113;28;20030;-67
2022/11/29 02:28:39;;;;;;;31.73;23.48;;;;;;;3.89;100.00;101557.25;5148104;28;20088;-66
2022/11/29 02:31:37;;;;;;;24.08;21.58;;;;;;;3.84;100.00;101561.53;5147827;28;20026;-69
2022/11/29 02:34:07;;;;;;;22.92;21.15;;;;;;;3.80;100.00;101554.91;5147826;28;20030;-68
2022/11/29 02:37:02;;;;;;;29.30;24.13;;;;;;;3.77;100.00;101560.63;5147915;28;20026;-67
2022/11/29 02:39:56;;;;;;;28.17;23.35;;;;;;;3.71;100.00;101567.59;5147894;28;20030;-67
2022/11/29 02:42:47;;;;;;;25.20;21.98;;;;;;;3.65;100.00;101574.53;5147645;28;20026;-67
2022/11/29 02:45:30;;;;;;;27.95;21.42;;;;;;;3.61;100.00;101572.44;5147747;28;20031;-69
2022/11/29 02:48:25;;;;;;;28.02;22.75;;;;;;;3.57;100.00;101571.16;5147722;28;20041;-68
2022/11/29 02:51:10;;;;;;;24.73;22.52;;;;;;;3.55;100.00;101574.03;5147226;28;20425;-67
2022/11/29 02:53:52;;;;;;;25.25;23.27;;;;;;;3.55;100.00;101583.88;5147564;28;20032;-69
2022/11/29 02:56:22;;;;;;;24.80;22.88;;;;;;;3.55;100.00;101582.03;5147601;28;20034;-68
2022/11/29 02:59:03;;;;;;;34.35;23.88;;;;;;;3.54;100.00;101593.75;5147429;28;20513;-67
2022/11/29 03:01:45;;;;;;;45.83;25.55;;;;;;;3.53;100.00;101588.59;5147055;28;20026;-68
2022/11/29 03:04:36;;;;;;;22.92;20.98;;;;;;;3.51;100.00;101593.28;5147476;28;20512;-67
2022/11/29 03:07:29;;;;;;;31.35;23.13;;;;;;;3.46;100.00;101593.06;5147355;28;20439;-67
2022/11/29 03:10:02;;;;;;;26.63;24.63;;;;;;;3.44;100.00;101597.78;5147379;28;20030;-69
2022/11/29 03:12:51;;;;;;;33.42;24.92;;;;;;;3.19;100.00;101574.09;5147196;28;20023;-67
2022/11/29 03:15:30;;;;;;;25.52;23.58;;;;;;;3.37;100.00;101605.72;5147274;28;20486;-68
2022/11/29 03:18:16;;;;;;;24.08;21.98;;;;;;;3.34;100.00;101611.44;5147105;28;20026;-67
2022/11/29 03:20:46;;;;;;;42.78;24.33;;;;;;;3.31;100.00;101604.63;5164099;28;20026;-68
2022/11/29 03:23:20;;;;;;;25.08;23.08;;;;;;;3.32;100.00;101603.59;5147024;28;20398;-68
2022/11/29 03:26:06;;;;;;;22.58;20.70;;;;;;;3.34;100.00;101609.59;5147056;28;20153;-68
2022/11/29 03:28:55;;;;;;;27.45;23.00;;;;;;;3.35;100.00;101615.75;5147288;28;20033;-68
2022/11/29 03:31:30;;;;;;;26.40;22.17;;;;;;;3.31;100.00;101615.31;5146596;28;20028;-67
2022/11/29 03:34:26;;;;;;;44.22;22.38;;;;;;;3.30;100.00;101623.50;5146882;28;20402;-68
2022/11/29 03:37:16;;;;;;;22.27;20.88;;;;;;;3.31;100.00;101619.81;5146883;28;20022;-67
2022/11/29 03:39:50;;;;;;;;;;;;;;;3.33;100.00;101631.94;5146982;28;20022;-68
2022/11/29 03:42:33;;;;;;;23.73;21.90;;;;;;;3.33;100.00;101626.63;5146661;28;19951;-67
2022/11/29 03:45:10;;;;;;;42.90;25.80;;;;;;;3.31;100.00;101631.31;5146552;28;20057;-68
2022/11/29 03:47:56;;;;;;;22.67;21.02;;;;;;;3.31;100.00;101631.31;5146702;28;20041;-68
2022/11/29 03:50:37;;;;;;;25.98;20.25;;;;;;;3.31;100.00;101633.97;5146301;28;20026;-67
2022/11/29 03:53:18;;;;;;;22.83;21.20;;;;;;;3.31;100.00;101639.31;5146498;28;20023;-67
2022/11/29 03:56:01;;;;;;;35.13;21.77;;;;;;;3.31;100.00;101635.81;5164086;28;20022;-68
2022/11/29 03:58:55;;;;;;;24.90;22.65;;;;;;;3.30;100.00;101632.34;5146501;28;20022;-67
2022/11/29 04:01:52;;;;;;;30.67;20.88;;;;;;;3.32;100.00;101638.31;5145982;28;20545;-68
2022/11/29 04:05:06;;;;;;;23.63;21.98;;;;;;;3.35;100.00;101621.91;5124062;28;20038;-68
2022/11/29 04:07:54;;;;;;;24.90;22.88;;;;;;;3.37;100.00;101624.41;5148178;28;20046;-68
2022/11/29 04:10:46;;;;;;;24.13;21.73;;;;;;;3.36;100.00;101626.25;5145718;28;20085;-68
2022/11/29 04:13:23;;;;;;;24.25;22.15;;;;;;;3.39;100.00;101631.19;5146476;28;20031;-68
2022/11/29 04:16:06;;;;;;;25.38;23.13;;;;;;;3.41;100.00;101630.19;5146392;28;20027;-67
2022/11/29 04:18:57;;;;;;;21.70;19.75;;;;;;;3.40;100.00;101640.03;5146580;28;20069;-68
2022/11/29 04:21:46;;;;;;;59.45;24.73;;;;;;;3.44;100.00;101640.50;5145960;28;20034;-67
2022/11/29 04:24:32;;;;;;;23.33;21.08;;;;;;;3.45;100.00;101647.50;5146351;28;20058;-68
2022/11/29 04:27:24;;;;;;;48.33;22.23;;;;;;;3.48;100.00;101652.41;5164158;28;20030;-68
2022/11/29 04:30:09;;;;;;;61.35;22.77;;;;;;;3.47;100.00;101651.59;5146064;28;20033;-68
2022/11/29 04:32:42;;;;;;;59.22;24.15;;;;;;;3.54;100.00;101652.50;5145953;28;20084;-69
2022/11/29 04:35:32;;;;;;;47.15;23.65;;;;;;;3.55;100.00;101645.31;5146610;28;20507;-68
2022/11/29 04:38:11;;;;;;;43.53;22.40;;;;;;;3.56;100.00;101650.47;5146524;28;20026;-68
2022/11/29 04:40:42;;;;;;;85.70;24.80;;;;;;;3.58;100.00;101647.59;5146096;28;20034;-69
2022/11/29 04:43:34;;;;;;;28.77;21.58;;;;;;;3.56;100.00;101647.78;5146374;28;20034;-69
2022/11/29 04:46:42;;;;;;;25.48;21.25;;;;;;;3.57;100.00;101653.97;5163879;28;20026;-69
2022/11/29 04:49:34;;;;;;;28.55;19.98;;;;;;;3.59;100.00;101658.09;5114614;28;20042;-69
2022/11/29 04:52:17;;;;;;;45.30;27.98;;;;;;;3.59;100.00;101666.09;5146548;28;20026;-69
2022/11/29 04:55:01;;;;;;;49.80;30.23;;;;;;;3.60;100.00;101666.94;5146544;28;20557;-69
2022/11/29 04:57:38;;;;;;;49.65;32.80;;;;;;;3.58;100.00;101668.97;5146497;28;20036;-68
2022/11/29 05:00:22;;;;;;;73.30;34.00;;;;;;;3.58;100.00;101668.97;5163722;28;20502;-69
2022/11/29 05:03:09;;;;;;;48.20;30.23;;;;;;;3.59;100.00;101671.44;5146225;28;20026;-69
2022/11/29 05:05:48;;;;;;;127.22;32.83;;;;;;;3.61;100.00;101680.09;5146220;28;20026;-69
2022/11/29 05:08:25;;;;;;;62.08;29.52;;;;;;;3.62;100.00;101676.41;5163346;28;20032;-69
2022/11/29 05:11:09;;;;;;;40.05;28.20;;;;;;;3.62;100.00;101678.25;5145652;28;20034;-68
2022/11/29 05:13:57;;;;;;;64.28;23.92;;;;;;;3.62;100.00;101689.75;5146109;28;20022;-68
2022/11/29 05:16:46;;;;;;;26.38;23.13;;;;;;;3.60;100.00;101694.47;5145732;28;20027;-68
2022/11/29 05:19:48;;;;;;;22.23;20.17;;;;;;;3.62;100.00;101699.63;5145483;28;20034;-70
2022/11/29 05:22:25;;;;;;;59.47;21.10;;;;;;;3.62;100.00;101702.28;5135752;28;20030;-67
2022/11/29 05:25:12;;;;;;;31.73;19.27;;;;;;;3.63;100.00;101709.28;5149448;28;20040;-67
2022/11/29 05:27:54;;;;;;;43.05;19.25;;;;;;;3.62;100.00;101705.78;5149556;28;20050;-68
2022/11/29 05:30:42;;;;;;;62.90;20.45;;;;;;;3.52;100.00;101702.59;5149220;28;20118;-69
2022/11/29 05:33:19;;;;;;;26.95;17.27;;;;;;;3.55;100.00;101712.06;5149298;28;20111;-66
2022/11/29 05:36:12;;;;;;;38.63;19.63;;;;;;;3.55;100.00;101714.75;5149109;28;20030;-67
2022/11/29 05:38:54;;;;;;;25.83;18.98;;;;;;;3.47;100.00;101706.84;5141609;28;20566;-67
2022/11/29 05:42:12;;;;;;;21.55;19.65;;;;;;;3.49;100.00;101715.47;5148929;28;20526;-69
2022/11/29 05:45:24;;;;;;;30.52;21.63;;;;;;;3.47;100.00;101717.50;5084286;29;20036;-66
2022/11/29 05:48:13;;;;;;;24.08;21.98;;;;;;;3.43;100.00;101724.28;5109398;29;20035;-67
2022/11/29 05:51:14;;;;;;;39.08;23.20;;;;;;;3.42;100.00;101727.97;5096016;29;20469;-68
2022/11/29 05:54:13;;;;;;;22.77;19.90;;;;;;;3.40;100.00;101736.16;5138761;28;20132;-67
2022/11/29 05:57:05;;;;;;;64.47;21.15;;;;;;;3.36;100.00;101735.69;5155609;28;20030;-70
2022/11/29 05:59:38;;;;;;;69.07;21.13;;;;;;;3.31;100.00;101738.09;5146307;28;20337;-66
2022/11/29 06:02:48;;;;;;;62.47;19.83;;;;;;;3.28;100.00;101748.31;5147099;28;20038;-66
2022/11/29 06:05:29;;;;;;;;;;;;;;;3.25;100.00;101746.00;5165428;28;20050;-67
2022/11/29 06:08:14;;;;;;;40.88;19.95;;;;;;;3.19;100.00;101744.91;5161703;28;19909;-67
2022/11/29 06:11:16;;;;;;;35.28;19.90;;;;;;;3.16;100.00;101752.50;5147643;28;20026;-68
2022/11/29 06:14:04;;;;;;;23.00;18.05;;;;;;;2.86;100.00;101711.66;5143743;28;20058;-69
2022/11/29 06:16:55;;;;;;;40.28;21.15;;;;;;;3.15;100.00;101758.84;5148127;28;20038;-67
2022/11/29 06:19:54;;;;;;;32.78;18.52;;;;;;;3.11;100.00;101760.22;5164737;28;20403;-68
2022/11/29 06:22:25;;;;;;;20.93;18.93;;;;;;;3.05;100.00;101762.59;5143637;28;20518;-67
2022/11/29 06:25:26;;;;;;;29.60;18.52;;;;;;;2.99;100.00;101770.50;5147941;28;20277;-69
2022/11/29 06:28:21;;;;;;;22.13;20.20;;;;;;;2.89;100.00;101776.09;5148435;28;20500;-68
2022/11/29 06:31:28;;;;;;;23.38;21.15;;;;;;;2.90;100.00;101785.75;5147599;28;20030;-70
2022/11/29 06:34:10;;;;;;;24.02;21.88;;;;;;;2.91;100.00;101782.09;5147569;28;20053;-69
2022/11/29 06:36:52;;;;;;;35.40;22.10;;;;;;;2.94;100.00;101784.41;5160887;28;20030;-68
2022/11/29 06:39:23;;;;;;;20.58;18.90;;;;;;;2.98;100.00;101790.19;5147695;28;20022;-69
2022/11/29 06:41:53;;;;;;;23.52;21.17;;;;;;;3.00;100.00;101785.50;5163907;28;20028;-68
2022/11/29 06:44:24;;;;;;;26.58;20.70;;;;;;;2.83;100.00;101760.03;5183097;23;20661;-81
2022/11/29 06:47:00;;;;;;;31.35;23.42;;;;;;;3.00;100.00;101789.00;5142712;28;20110;-81
2022/11/29 06:49:49;;;;;;;20.13;18.45;;;;;;;2.82;100.00;101774.38;5152469;28;20060;-80
2022/11/29 06:52:22;;;;;;;22.10;19.97;;;;;;;2.98;100.00;101800.88;5153942;28;20433;-82
2022/11/29 06:57:59;;;;;;;28.42;18.13;;;;;;;2.81;100.00;101776.22;5188698;23;20046;-81
2022/11/29 07:00:52;;;;;;;55.50;20.33;;;;;;;2.86;100.00;101791.69;5174071;28;20037;-83
2022/11/29 07:03:43;;;;;;;20.92;18.58;;;;;;;2.99;100.00;101814.03;5173732;28;20405;-81
2022/11/29 07:06:25;;;;;;;46.55;21.67;;;;;;;2.73;100.00;101770.97;5171867;28;20039;-86
2022/11/29 07:09:18;;;;;;;46.85;26.90;;;;;;;2.95;100.00;101814.56;5155889;28;20113;-80
2022/11/29 07:11:49;;;;;;;37.30;28.15;;;;;;;2.81;100.00;101789.56;5172047;28;20086;-80
2022/11/29 07:14:19;;;;;;;27.33;24.55;;;;;;;2.71;100.00;101770.31;5172613;28;20057;-79
2022/11/29 07:16:56;;;;;;;31.90;29.02;;;;;;;3.03;100.00;101828.66;5154858;28;20018;-83
2022/11/29 07:19:38;;;;;;;67.13;30.95;;;;;;;3.08;100.00;101836.13;5155111;28;20388;-82
2022/11/29 07:22:30;;;;;;;38.63;31.30;;;;;;;3.16;100.00;101844.06;5172462;28;20510;-81
2022/11/29 07:25:22;;;;;;;45.72;25.75;;;;;;;3.17;100.00;101837.72;5170933;28;20046;-81
2022/11/29 07:28:02;;;;;;;66.50;30.63;;;;;;;3.28;100.00;101857.75;5173353;28;20100;-82
2022/11/29 07:30:36;;;;;;;38.17;27.27;;;;;;;3.31;100.00;101855.56;5154546;28;20038;-82
2022/11/29 07:33:15;;;;;;;42.10;27.85;;;;;;;3.35;100.00;101859.50;5171976;28;20037;-81
2022/11/29 07:36:21;;;;;;;104.65;34.40;;;;;;;3.38;100.00;101853.81;5172419;28;20030;-82
2022/11/29 07:39:02;;;;;;;44.78;29.20;;;;;;;3.42;100.00;101858.78;5153357;28;20034;-84
2022/11/29 07:41:53;;;;;;;65.82;32.55;;;;;;;3.49;100.00;101857.84;5153019;28;20030;-82
2022/11/29 07:45:05;;;;;;;39.08;28.00;;;;;;;3.31;100.00;101822.69;5171205;28;20068;-83
2022/11/29 07:47:35;;;;;;;37.25;33.55;;;;;;;3.56;100.00;101847.25;5172984;28;20034;-83
2022/11/29 07:50:06;;;;;;;55.50;34.97;;;;;;;3.55;100.00;101841.09;5172862;28;20103;-81
2022/11/29 07:52:37;;;;;;;36.50;30.20;;;;;;;3.77;100.00;101862.50;5155345;28;20025;-80
2022/11/29 07:55:12;;;;;;;47.15;34.78;;;;;;;3.76;100.00;101864.34;5172324;28;20030;-81
2022/11/29 07:57:43;;;;;;;41.63;30.92;;;;;;;3.74;100.00;101845.03;5156096;28;20026;-80
2022/11/29 08:00:14;;;;;;;43.05;33.08;;;;;;;3.70;100.00;101835.75;5173802;28;20204;-81
2022/11/29 08:02:47;;;;;;;40.70;34.25;;;;;;;3.90;100.00;101865.34;5173193;28;20492;-80
2022/11/29 08:05:19;;;;;;;37.13;33.17;;;;;;;3.34;100.00;101785.78;5172334;28;20133;-82
2022/11/29 08:07:50;;;;;;;34.08;30.35;;;;;;;3.85;100.00;101854.41;5172263;28;20078;-80
2022/11/29 08:10:21;;;;;;;43.05;31.50;;;;;;;3.50;100.00;101803.41;5172338;28;20041;-80
2022/11/29 08:12:51;;;;;;;44.00;30.40;;;;;;;4.01;100.00;101864.88;5171959;28;20504;-83
2022/11/29 08:15:23;;;;;;;32.08;28.90;;;;;;;4.15;100.00;101890.72;5154498;28;20026;-80
2022/11/29 08:17:54;;;;;;;36.33;32.33;;;;;;;3.79;100.00;101817.72;5171602;28;20034;-79
2022/11/29 08:20:24;;;;;;;40.28;32.28;;;;;;;4.11;100.00;101845.84;5171232;28;20204;-80
2022/11/29 08:22:57;;;;;;;44.55;32.80;;;;;;;4.31;100.00;101884.34;5171773;28;20093;-81
2022/11/29 08:25:27;;;;;;;34.05;30.73;;;;;;;4.38;100.00;101895.91;5171592;28;20655;-79
2022/11/29 08:27:58;;;;;;;39.70;33.53;;;;;;;4.43;100.00;101908.72;5171969;28;20057;-82
2022/11/29 08:30:29;;;;;;;41.13;30.52;;;;;;;4.38;100.00;101891.38;5171365;28;20027;-81
2022/11/29 08:32:59;;;;;;;34.63;31.05;;;;;;;3.89;100.00;101810.25;5171705;28;20030;-81
2022/11/29 08:35:30;;;;;;;33.58;29.83;;;;;;;3.92;100.00;101792.00;5154075;28;20038;-80
2022/11/29 08:38:02;;;;;;;37.35;29.05;;;;;;;4.55;100.00;101888.47;5172015;28;20496;-82
2022/11/29 09:31:20;;;;;;;;;;;;;;;;;;;;;
2022/11/29 09:33:53;;;;;;;38.72;35.40;;;;;;;4.85;100.00;101811.56;5153131;28;20091;-91
2022/11/29 09:36:24;;;;;;;37.53;33.80;;;;;;;5.43;100.00;101898.66;5153006;28;20039;-91
2022/11/29 09:38:56;;;;;;;37.45;33.92;;;;;;;5.53;100.00;101917.03;5154767;28;20022;-90
2022/11/29 09:41:35;;;;;;;39.15;35.35;;;;;;;5.89;100.00;101965.13;5149246;28;20034;-91
2022/11/29 09:44:24;;;;;;;29.85;26.88;;;;;;;5.88;100.00;101958.06;5148974;28;20046;-92
2022/11/29 09:52:44;;;;;;;38.17;34.53;;;;;;;6.15;100.00;101985.88;5659757;23;20316;-90
2022/11/29 09:55:45;;;;;;;36.58;33.47;;;;;;;6.25;100.00;101976.44;5138765;28;20042;-90
2022/11/29 09:58:25;;;;;;;38.60;34.92;;;;;;;6.30;100.00;101990.09;5150390;28;20070;-91
2022/11/29 10:01:01;;;;;;;39.57;35.80;;;;;;;5.69;100.00;101869.31;5150479;28;20027;-92
2022/11/29 10:03:39;;;;;;;41.85;37.67;;;;;;;5.45;100.00;101842.22;5148979;28;20278;-91
2022/11/29 10:06:35;;;;;;;38.05;34.58;;;;;;;6.63;100.00;101967.91;5155321;28;20030;-90
2022/11/29 10:09:18;;;;;;;43.33;38.60;;;;;;;6.67;100.00;101999.47;5159911;28;20026;-91
2022/11/29 10:12:18;;;;;;;42.53;38.53;;;;;;;6.61;100.00;101970.78;5154210;28;20027;-89
2022/11/29 10:14:56;;;;;;;39.35;35.10;;;;;;;6.57;100.00;101966.84;5161231;23;20051;-66
2022/11/29 10:17:41;;;;;;;34.33;30.75;;;;;;;6.50;100.00;101971.34;5125461;28;20074;-67
2022/11/29 10:20:24;;;;;;;39.85;34.38;;;;;;;6.49;100.00;101966.19;5119272;28;20035;-66
2022/11/29 10:23:34;;;;;;;38.35;34.42;;;;;;;6.50;100.00;101965.16;5118259;28;20055;-66
2022/11/29 10:26:06;;;;;;;41.97;37.70;;;;;;;6.76;100.00;101966.06;5119061;28;20114;-67
2022/11/29 10:28:43;;;;;;;39.60;36.35;;;;;;;6.95;100.00;101966.28;5119026;28;20028;-68
2022/11/29 10:31:27;;;;;;;39.65;35.90;;;;;;;6.91;100.00;101965.88;5118743;28;20024;-66
2022/11/29 10:34:01;;;;;;;38.35;34.50;;;;;;;6.98;100.00;101966.69;5114094;28;20507;-67
2022/11/29 10:36:47;;;;;;;38.10;34.53;;;;;;;7.05;100.00;101962.16;5105768;29;20031;-68
2022/11/29 10:39:21;;;;;;;41.47;37.67;;;;;;;7.23;100.00;101960.72;5105593;29;20023;-68
2022/11/29 10:41:58;;;;;;;41.20;37.10;;;;;;;7.30;100.00;101965.06;5099987;29;20042;-67
2022/11/29 10:44:31;;;;;;;41.30;37.60;;;;;;;7.31;100.00;101949.75;5105335;29;20369;-67
2022/11/29 10:47:04;;;;;;;40.50;36.92;;;;;;;7.31;100.00;101966.72;5105686;29;20038;-66
2022/11/29 10:49:36;;;;;;;40.55;37.00;;;;;;;7.36;100.00;101963.41;5105518;29;20047;-67
2022/11/29 10:52:18;;;;;;;42.65;38.00;;;;;;;7.38;100.00;101956.78;5104928;29;20094;-68
2022/11/29 10:54:57;;;;;;;40.05;35.88;;;;;;;7.40;100.00;101959.28;5105139;29;20127;-67
2022/11/29 10:57:27;;;;;;;33.93;30.67;;;;;;;7.40;100.00;101959.28;5105458;29;20036;-67
2022/11/29 11:00:06;;;;;;;45.00;37.95;;;;;;;7.43;100.00;101962.38;5105349;29;20024;-66
2022/11/29 11:02:36;;;;;;;44.30;39.70;;;;;;;7.42;100.00;101930.34;5104744;29;20070;-67
2022/11/29 11:05:17;;;;;;;42.28;38.35;;;;;;;7.70;100.00;101959.66;5105334;29;20428;-66
2022/11/29 11:07:56;;;;;;;45.63;41.05;;;;;;;7.73;100.00;101961.91;5105459;29;20484;-67
2022/11/29 11:10:29;;;;;;;48.60;43.72;;;;;;;7.80;100.00;101960.03;5105476;29;20032;-67
2022/11/29 11:13:19;;;;;;;62.03;47.00;;;;;;;7.93;100.00;101962.69;5104809;29;20103;-67
2022/11/29 11:15:54;;;;;;;;;;;;;;;7.98;100.00;101968.25;5105635;29;20038;-67
2022/11/29 11:18:28;;;;;;;47.17;42.75;;;;;;;7.89;100.00;101964.13;5105160;29;19986;-66
2022/11/29 11:21:00;;;;;;;55.15;41.40;;;;;;;7.96;100.00;101964.97;5104709;29;20119;-67
2022/11/29 11:23:34;;;;;;;44.25;39.65;;;;;;;7.97;100.00;101968.47;5103530;29;20050;-66
2022/11/29 11:26:12;;;;;;;46.55;41.55;;;;;;;8.09;100.00;101958.69;5105051;29;20027;-67
2022/11/29 11:28:55;;;;;;;42.28;38.05;;;;;;;8.16;100.00;101958.66;5104993;29;20028;-67
2022/11/29 11:31:27;;;;;;;42.75;38.85;;;;;;;8.03;100.00;101959.56;5104949;29;20374;-67
2022/11/29 11:34:17;;;;;;;50.65;43.50;;;;;;;8.01;100.00;101961.63;5102996;29;20027;-67
2022/11/29 11:36:47;;;;;;;41.28;37.63;;;;;;;7.93;100.00;101959.16;5104769;29;20031;-66
2022/11/29 11:39:20;;;;;;;43.05;38.88;;;;;;;7.86;100.00;101956.50;5105050;29;20050;-66
2022/11/29 11:44:51;;;;;;;37.47;33.53;;;;;;;7.52;100.00;101933.41;5106109;29;20103;-66
2022/11/29 11:47:25;;;;;;;38.78;35.45;;;;;;;7.75;100.00;101965.22;5104378;29;20276;-66
2022/11/29 11:49:58;;;;;;;46.22;37.10;;;;;;;7.99;100.00;101974.47;5104670;29;20034;-66
2022/11/29 11:52:42;;;;;;;41.22;36.38;;;;;;;8.10;100.00;101976.47;5104269;29;20038;-67
2022/11/29 11:55:35;;;;;;;41.65;37.53;;;;;;;8.26;100.00;101976.03;5104855;29;20111;-66
2022/11/29 11:58:17;;;;;;;40.08;36.25;;;;;;;8.42;100.00;101977.44;5104812;29;20032;-66
2022/11/29 12:00:49;;;;;;;42.83;38.33;;;;;;;8.45;100.00;101975.13;5104952;29;20035;-67
2022/11/29 12:03:41;;;;;;;45.58;41.38;;;;;;;8.44;100.00;101978.03;5104314;29;20392;-67
2022/11/29 12:06:24;;;;;;;49.67;44.67;;;;;;;8.41;100.00;101978.47;5104980;29;20136;-67
2022/11/29 12:09:17;;;;;;;45.83;41.08;;;;;;;8.32;100.00;101980.59;5104717;29;20460;-68
2022/11/29 12:12:00;;;;;;;49.85;45.55;;;;;;;8.21;100.00;101985.78;5104544;29;20029;-68
2022/11/29 12:14:41;;;;;;;45.75;41.50;;;;;;;8.11;100.00;101991.59;5104645;29;20388;-68
2022/11/29 12:17:36;;;;;;;48.83;43.92;;;;;;;8.22;100.00;102000.88;5104521;29;20078;-65
2022/11/29 12:20:22;;;;;;;51.33;46.25;;;;;;;8.33;100.00;102000.25;5104547;29;20023;-66
2022/11/29 12:22:52;;;;;;;56.03;46.75;;;;;;;8.49;100.00;102010.53;5103904;29;20236;-66
2022/11/29 12:25:38;;;;;;;48.35;44.10;;;;;;;8.59;100.00;102002.84;5104546;29;20079;-67
2022/11/29 12:28:14;;;;;;;56.97;51.33;;;;;;;8.51;100.00;102000.38;5104591;29;20357;-66
2022/11/29 12:31:02;;;;;;;49.72;44.47;;;;;;;8.53;100.00;102010.94;5104080;29;20039;-66
2022/11/29 12:33:56;;;;;;;50.15;44.78;;;;;;;8.60;100.00;102015.25;5103294;29;20106;-66
2022/11/29 12:36:29;;;;;;;54.60;48.90;;;;;;;8.67;100.00;102013.31;5103851;29;20564;-66
2022/11/29 12:39:08;;;;;;;53.40;47.75;;;;;;;8.76;100.00;102017.44;5103696;29;20498;-67
2022/11/29 12:41:44;;;;;;;53.65;48.47;;;;;;;8.87;100.00;102020.50;5103811;29;20383;-66
2022/11/29 12:44:47;;;;;;;56.13;50.15;;;;;;;8.91;100.00;102021.72;5103323;29;20047;-66
2022/11/29 12:47:32;;;;;;;52.15;46.80;;;;;;;9.00;100.00;102025.78;5102251;29;20079;-66
2022/11/29 12:50:20;;;;;;;50.42;45.83;;;;;;;9.21;100.00;102021.94;5102042;29;20041;-66
2022/11/29 12:53:03;;;;;;;51.97;46.80;;;;;;;9.17;100.00;102021.53;5102935;29;20548;-67
2022/11/29 12:55:39;;;;;;;47.35;42.80;;;;;;;8.91;100.00;102027.94;5103369;29;20396;-66
2022/11/29 12:58:15;;;;;;;49.72;44.70;;;;;;;8.67;100.00;102023.28;5101849;29;20039;-66
2022/11/29 13:00:53;;;;;;;49.00;43.28;;;;;;;8.52;100.00;102028.13;5103245;29;20031;-66
2022/11/29 13:03:55;;;;;;;51.10;39.63;;;;;;;8.36;100.00;102035.66;5102506;29;20119;-67
2022/11/29 13:06:47;;;;;;;51.08;45.53;;;;;;;8.16;100.00;102034.00;5100884;29;20047;-66
2022/11/29 13:09:23;;;;;;;51.40;46.13;;;;;;;8.02;100.00;102041.31;5103114;29;20103;-66
2022/11/29 13:12:09;;;;;;;46.92;41.88;;;;;;;7.94;100.00;102041.50;5102549;29;20036;-66
2022/11/29 13:14:50;;;;;;;56.63;45.65;;;;;;;7.80;100.00;102043.38;5101608;29;20036;-67
2022/11/29 13:17:32;;;;;;;51.83;46.15;;;;;;;7.77;100.00;102046.50;5103387;29;20530;-66
2022/11/29 13:20:18;;;;;;;52.78;47.28;;;;;;;7.68;100.00;102055.81;5103070;29;20400;-66